Time;durP1;ratioP1;P1;durP2;ratioP2;P2;SDS_P1;SDS_P2;PMS_P1;PMS_P2;Temp;Humidity;BMP_temperature;BMP_pressure;BME280_temperature;BME280_humidity;BME280_pressure;Samples;Min_cycle;Max_cycle;Signal;HPM_P1;HPM_P2
2022/08/24 00:02:53;;;;;;;;;;;;;;;21.33;76.85;100288.09;5350493;32;34684;-71
2022/08/24 00:05:55;;;;;;;;;;;;;;;21.20;77.65;100291.94;5389736;32;35493;-71
2022/08/24 00:08:58;;;;;;;;;;;;;;;22.04;73.60;100274.78;5373011;32;35138;-71
2022/08/24 00:12:00;;;;;;;;;;;;;;;22.15;72.17;100266.69;5379792;32;35333;-70
2022/08/24 00:15:02;;;;;;;;;;;;;;;21.50;76.10;100288.47;5368754;32;34992;-71
2022/08/24 00:18:04;;;;;;;;;;;;;;;22.19;73.13;100269.06;5369212;32;34445;-72
2022/08/24 00:21:07;;;;;;;;;;;;;;;21.45;75.82;100266.66;5386198;32;35211;-71
2022/08/24 00:24:09;;;;;;;;;;;;;;;21.83;74.74;100273.97;5376076;32;34608;-71
2022/08/24 00:27:11;;;;;;;;;;;;;;;21.31;77.02;100281.19;5386557;32;45035;-71
2022/08/24 00:30:14;;;;;;;;;;;;;;;21.23;77.99;100281.81;5367487;32;35332;-71
2022/08/24 00:33:16;;;;;;;;;;;;;;;21.18;78.34;100283.16;5390411;32;34767;-70
2022/08/24 00:36:20;;;;;;;;;;;;;;;21.39;76.83;100259.16;5366858;32;36364;-71
2022/08/24 00:39:22;;;;;;;;;;;;;;;21.93;74.60;100272.19;5374345;32;34767;-70
2022/08/24 00:42:24;;;;;;;;;;;;;;;21.31;77.68;100275.84;5398291;32;34934;-71
2022/08/24 00:45:26;;;;;;;;;;;;;;;20.94;79.68;100278.94;5366887;32;36534;-71
2022/08/24 00:48:28;;;;;;;;;;;;;;;21.49;76.87;100279.59;5396138;32;35502;-69
2022/08/24 00:51:33;;;;;;;;;;;;;;;21.17;78.13;100282.31;5364469;32;34531;-71
2022/08/24 00:54:36;;;;;;;;;;;;;;;21.09;78.76;100282.13;5371507;32;34702;-70
2022/08/24 00:57:41;;;;;;;;;;;;;;;21.48;76.74;100275.25;5377080;32;44831;-70
2022/08/24 01:00:44;;;;;;;;;;;;;;;20.81;79.92;100278.28;5357364;32;34949;-70
2022/08/24 01:03:50;;;;;;;;;;;;;;;21.20;78.32;100276.75;5358589;32;849779;-70
2022/08/24 01:06:57;;;;;;;;;;;;;;;21.02;78.04;100271.13;5372159;32;34496;-71
2022/08/24 01:10:00;;;;;;;;;;;;;;;20.86;79.03;100268.03;5387488;32;35074;-71
2022/08/24 01:13:04;;;;;;;;;;;;;;;20.46;81.64;100271.34;5384639;32;34854;-71
2022/08/24 01:16:06;;;;;;;;;;;;;;;21.26;77.64;100278.03;5369989;32;34058;-71
2022/08/24 01:19:31;;;;;;;;;;;;;;;21.56;76.18;100278.09;5391573;32;34144;-71
2022/08/24 01:22:42;;;;;;;;;;;;;;;21.06;77.62;100280.59;5376923;32;34984;-72
2022/08/24 01:25:44;;;;;;;;;;;;;;;20.81;79.65;100280.94;5392438;32;45649;-71
2022/08/24 01:28:47;;;;;;;;;;;;;;;20.46;81.15;100275.84;5370780;32;34231;-71
2022/08/24 01:31:52;;;;;;;;;;;;;;;20.53;80.59;100283.22;5379234;32;35139;-71
2022/08/24 01:34:55;;;;;;;;;;;;;;;21.02;78.94;100284.47;5393553;32;34952;-70
2022/08/24 01:37:57;;;;;;;;;;;;;;;20.71;80.23;100291.53;5369315;32;34994;-71
2022/08/24 01:41:01;;;;;;;;;;;;;;;20.11;83.33;100305.37;5393411;32;35310;-71
2022/08/24 01:44:03;;;;;;;;;;;;;;;20.32;82.24;100310.78;5390646;32;34996;-70
2022/08/24 01:47:06;;;;;;;;;;;;;;;21.01;79.77;100304.16;5371871;32;35226;-71
2022/08/24 01:50:08;;;;;;;;;;;;;;;20.70;80.00;100311.22;5369673;32;34858;-70
2022/08/24 01:53:10;;;;;;;;;;;;;;;20.02;83.27;100317.59;5374995;32;37280;-70
2022/08/24 01:56:12;;;;;;;;;;;;;;;20.18;82.96;100309.25;5382460;32;36279;-70
2022/08/24 01:59:13;;;;;;;;;;;;;;;20.43;81.64;100295.59;5380975;32;34787;-70
2022/08/24 02:02:23;;;;;;;;;;;;;;;19.73;86.58;100319.91;5370847;32;34687;-70
2022/08/24 02:05:25;;;;;;;;;;;;;;;20.88;80.02;100311.50;5379845;32;34988;-70
2022/08/24 02:08:26;;;;;;;;;;;;;;;20.48;82.16;100308.59;5387403;32;35097;-70
2022/08/24 02:11:28;;;;;;;;;;;;;;;20.86;79.98;100320.59;5379335;32;35238;-70
2022/08/24 02:14:30;;;;;;;;;;;;;;;21.02;78.79;100321.87;5379764;32;34090;-70
2022/08/24 02:17:35;;;;;;;;;;;;;;;20.63;81.21;100310.03;5397276;32;34015;-71
2022/08/24 02:20:37;;;;;;;;;;;;;;;20.48;80.63;100309.47;5375974;32;34892;-70
2022/08/24 02:23:40;;;;;;;;;;;;;;;20.38;81.72;100316.47;5396208;32;34945;-71
2022/08/24 02:26:42;;;;;;;;;;;;;;;20.73;80.77;100318.09;5375126;32;44066;-70
2022/08/24 02:29:44;;;;;;;;;;;;;;;20.13;83.69;100320.28;5393586;32;34342;-71
2022/08/24 02:32:46;;;;;;;;;;;;;;;20.29;82.63;100320.75;5378881;32;34891;-71
2022/08/24 02:35:48;;;;;;;;;;;;;;;20.50;82.24;100320.84;5386144;32;35600;-72
2022/08/24 02:38:50;;;;;;;;;;;;;;;20.45;82.67;100325.72;5385912;32;35640;-71
2022/08/24 02:41:54;;;;;;;;;;;;;;;20.59;81.99;100316.56;5380771;32;34888;-70
2022/08/24 02:44:56;;;;;;;;;;;;;;;20.33;82.14;100324.00;5387118;32;34646;-70
2022/08/24 02:47:58;;;;;;;;;;;;;;;20.92;79.47;100315.59;5369328;32;34798;-71
2022/08/24 02:51:00;;;;;;;;;;;;;;;20.87;79.84;100320.50;5381578;32;35076;-70
2022/08/24 02:54:04;;;;;;;;;;;;;;;20.29;81.89;100317.22;5377769;32;35876;-70
2022/08/24 02:57:08;;;;;;;;;;;;;;;20.79;80.00;100318.44;5369867;32;35404;-70
2022/08/24 03:00:11;;;;;;;;;;;;;;;20.42;82.27;100322.44;5387437;32;34215;-71
2022/08/24 03:03:13;;;;;;;;;;;;;;;20.39;81.77;100318.16;5356516;32;45209;-71
2022/08/24 03:06:15;;;;;;;;;;;;;;;20.68;81.33;100313.16;5397174;32;35391;-70
2022/08/24 03:09:17;;;;;;;;;;;;;;;20.60;80.09;100312.09;5386384;32;34843;-70
2022/08/24 03:12:18;;;;;;;;;;;;;;;21.42;77.18;100315.88;5387145;32;34615;-70
2022/08/24 03:15:21;;;;;;;;;;;;;;;20.59;81.71;100313.06;5385585;32;36076;-70
2022/08/24 03:18:25;;;;;;;;;;;;;;;20.36;81.81;100314.91;5373676;32;34423;-70
2022/08/24 03:21:27;;;;;;;;;;;;;;;20.58;81.49;100319.38;5392844;32;34938;-71
2022/08/24 03:24:29;;;;;;;;;;;;;;;20.84;80.47;100323.41;5369607;32;34713;-71
2022/08/24 03:27:31;;;;;;;;;;;;;;;20.65;80.49;100318.75;5385454;32;34293;-70
2022/08/24 03:30:33;;;;;;;;;;;;;;;20.87;79.95;100325.84;5375405;32;34894;-71
2022/08/24 03:33:35;;;;;;;;;;;;;;;20.67;80.62;100321.28;5387604;32;34704;-71
2022/08/24 03:36:37;;;;;;;;;;;;;;;20.87;79.66;100320.50;5376978;32;35047;-71
2022/08/24 03:39:39;;;;;;;;;;;;;;;20.87;79.58;100323.19;5378170;32;34958;-71
2022/08/24 03:42:41;;;;;;;;;;;;;;;20.68;79.55;100325.66;5396152;32;44940;-71
2022/08/24 03:45:43;;;;;;;;;;;;;;;20.81;80.45;100323.69;5368334;32;34953;-70
2022/08/24 03:48:46;;;;;;;;;;;;;;;20.78;79.45;100323.91;5383491;32;35024;-69
2022/08/24 03:51:49;;;;;;;;;;;;;;;20.96;79.87;100332.25;5375740;32;34885;-71
2022/08/24 03:54:51;;;;;;;;;;;;;;;20.54;80.83;100332.13;5372073;32;34937;-71
2022/08/24 03:57:53;;;;;;;;;;;;;;;20.47;82.26;100336.25;5379506;32;34808;-70
2022/08/24 04:00:55;;;;;;;;;;;;;;;20.54;80.88;100332.13;5366424;32;34987;-71
2022/08/24 04:03:57;;;;;;;;;;;;;;;20.22;83.36;100332.00;5384661;32;35398;-71
2022/08/24 04:06:59;;;;;;;;;;;;;;;20.07;84.26;100342.09;5369493;32;35534;-70
2022/08/24 04:10:01;;;;;;;;;;;;;;;20.69;80.99;100335.37;5404814;32;35230;-71
2022/08/24 04:13:02;;;;;;;;;;;;;;;20.95;78.86;100336.75;5381329;32;34275;-70
2022/08/24 04:16:06;;;;;;;;;;;;;;;21.01;79.21;100330.88;5382121;32;34634;-71
2022/08/24 04:19:08;;;;;;;;;;;;;;;21.19;78.17;100332.97;5389939;32;34776;-70
2022/08/24 04:22:10;;;;;;;;;;;;;;;21.17;77.55;100334.94;5374457;32;44726;-70
2022/08/24 04:25:12;;;;;;;;;;;;;;;20.95;78.77;100331.41;5386992;32;35405;-70
2022/08/24 04:28:17;;;;;;;;;;;;;;;21.04;78.76;100332.44;5370782;32;34881;-71
2022/08/24 04:31:18;;;;;;;;;;;;;;;21.13;77.60;100336.19;5397644;32;34880;-70
2022/08/24 04:34:20;;;;;;;;;;;;;;;21.32;77.30;100333.69;5377731;32;34731;-71
2022/08/24 04:37:22;;;;;;;;;;;;;;;21.16;77.76;100333.25;5373329;32;35356;-70
2022/08/24 04:40:29;;;;;;;;;;;;;;;20.86;79.63;100329.47;5388548;32;35295;-70
2022/08/24 04:43:33;;;;;;;;;;;;;;;20.87;79.19;100336.53;5384419;32;34170;-71
2022/08/24 04:46:37;;;;;;;;;;;;;;;20.76;80.20;100336.56;5386882;32;35073;-71
2022/08/24 04:49:39;;;;;;;;;;;;;;;21.24;77.68;100342.28;5375629;32;34650;-71
2022/08/24 04:52:41;;;;;;;;;;;;;;;21.23;77.37;100329.91;5396763;32;45142;-71
2022/08/24 04:55:44;;;;;;;;;;;;;;;20.87;78.29;100327.69;5372041;32;34896;-71
2022/08/24 04:58:46;;;;;;;;;;;;;;;21.32;77.25;100321.16;5371916;32;35062;-70
2022/08/24 05:01:48;;;;;;;;;;;;;;;20.94;79.89;100331.53;5366574;32;35602;-70
2022/08/24 05:04:50;;;;;;;;;;;;;;;21.67;75.62;100327.12;5373208;32;34715;-70
2022/08/24 05:07:52;;;;;;;;;;;;;;;21.23;76.81;100329.06;5384811;32;35017;-70
2022/08/24 05:10:57;;;;;;;;;;;;;;;21.96;75.18;100324.59;5375198;32;37164;-71
2022/08/24 05:13:59;;;;;;;;;;;;;;;22.37;72.67;100327.16;5392494;32;34678;-70
2022/08/24 05:17:01;;;;;;;;;;;;;;;22.10;72.81;100324.28;5383596;32;35022;-70
2022/08/24 05:20:03;;;;;;;;;;;;;;;22.42;71.00;100334.81;5374706;32;34105;-71
2022/08/24 05:23:05;;;;;;;;;;;;;;;22.76;70.39;100332.59;5396761;32;34271;-70
2022/08/24 05:26:15;;;;;;;;;;;;;;;22.80;70.79;100327.78;5367052;32;34176;-73
2022/08/24 05:29:18;;;;;;;;;;;;;;;23.71;66.16;100332.72;5393906;32;43250;-79
2022/08/24 05:32:20;;;;;;;;;;;;;;;22.76;69.30;100329.06;5376174;32;35439;-72
2022/08/24 05:35:22;;;;;;;;;;;;;;;22.96;68.82;100328.97;5385142;32;35119;-73
2022/08/24 05:38:23;;;;;;;;;;;;;;;22.75;69.95;100314.84;5387121;32;36353;-79
2022/08/24 05:41:26;;;;;;;;;;;;;;;23.38;67.99;100325.13;5373248;32;35452;-72
2022/08/24 05:44:30;;;;;;;;;;;;;;;23.32;67.76;100334.59;5386822;32;35595;-71
2022/08/24 05:47:33;;;;;;;;;;;;;;;24.30;64.68;100326.09;5378413;32;34343;-76
2022/08/24 05:50:36;;;;;;;;;;;;;;;24.75;61.93;100330.66;5389875;32;34149;-72
2022/08/24 05:53:38;;;;;;;;;;;;;;;25.34;59.89;100326.50;5386052;32;35304;-82
2022/08/24 05:56:40;;;;;;;;;;;;;;;25.48;59.62;100319.72;5366814;32;43980;-76
2022/08/24 05:59:42;;;;;;;;;;;;;;;26.37;56.09;100310.44;5378041;32;34243;-81
2022/08/24 06:02:44;;;;;;;;;;;;;;;25.30;59.31;100319.75;5366439;32;35709;-69
2022/08/24 06:05:47;;;;;;;;;;;;;;;26.20;57.12;100318.44;5388171;32;34266;-70
2022/08/24 06:08:50;;;;;;;;;;;;;;;26.78;54.10;100316.78;5375050;32;34276;-72
2022/08/24 06:11:52;;;;;;;;;;;;;;;27.44;52.45;100315.81;5389824;32;35607;-72
2022/08/24 06:14:54;;;;;;;;;;;;;;;27.32;52.41;100313.62;5373393;32;35156;-72
2022/08/24 06:17:56;;;;;;;;;;;;;;;27.80;50.65;100313.56;5385838;32;36079;-71
2022/08/24 06:20:58;;;;;;;;;;;;;;;27.73;50.77;100317.12;5390231;32;35557;-73
2022/08/24 06:24:00;;;;;;;;;;;;;;;27.90;50.78;100310.69;5378503;32;34168;-72
2022/08/24 06:27:20;;;;;;;;;;;;;;;28.74;48.11;100309.09;5396255;32;34947;-73
2022/08/24 06:30:22;;;;;;;;;;;;;;;27.75;50.07;100315.09;5380331;32;34398;-68
2022/08/24 06:33:31;;;;;;;;;;;;;;;28.61;48.18;100322.37;5392310;32;34300;-75
2022/08/24 06:36:34;;;;;;;;;;;;;;;28.32;49.49;100320.31;5363908;32;33358;-73
2022/08/24 06:39:35;;;;;;;;;;;;;;;28.07;50.68;100330.34;5369923;32;34663;-70
2022/08/24 06:42:37;;;;;;;;;;;;;;;28.39;48.80;100333.97;5388135;32;34425;-82
2022/08/24 06:45:40;;;;;;;;;;;;;;;28.40;49.61;100325.69;5378171;32;35275;-69
2022/08/24 06:48:45;;;;;;;;;;;;;;;29.31;47.21;100329.50;5391673;32;46827;-77
2022/08/24 06:51:47;;;;;;;;;;;;;;;30.11;44.75;100332.41;5377778;32;34429;-74
2022/08/24 06:54:52;;;;;;;;;;;;;;;28.39;49.52;100342.91;5390012;32;35384;-75
2022/08/24 06:57:54;;;;;;;;;;;;;;;28.69;48.47;100338.53;5378812;32;35074;-73
2022/08/24 07:00:56;;;;;;;;;;;;;;;28.46;49.64;100346.59;5365183;32;33643;-68
2022/08/24 07:03:58;;;;;;;;;;;;;;;28.29;49.93;100344.97;5379368;32;34328;-72
2022/08/24 07:07:00;;;;;;;;;;;;;;;28.58;49.29;100347.88;5384780;32;34517;-67
2022/08/24 07:10:02;;;;;;;;;;;;;;;28.55;48.94;100342.84;5400757;32;35569;-69
2022/08/24 07:13:04;;;;;;;;;;;;;;;27.68;51.09;100346.47;5380679;32;33282;-67
2022/08/24 07:16:08;;;;;;;;;;;;;;;28.42;50.01;100348.00;5385556;32;34343;-73
2022/08/24 07:19:10;;;;;;;;;;;;;;;27.58;52.55;100353.94;5386948;32;43677;-77
2022/08/24 07:22:13;;;;;;;;;;;;;;;26.19;56.12;100370.62;5381597;32;36004;-75
2022/08/24 07:25:16;;;;;;;;;;;;;;;26.62;54.95;100366.13;5391157;32;37421;-80
2022/08/24 07:28:21;;;;;;;;;;;;;;;26.54;55.86;100373.34;5375278;32;35279;-73
2022/08/24 07:31:35;;;;;;;;;;;;;;;26.02;57.98;100385.03;5396023;32;34263;-84
2022/08/24 07:34:37;;;;;;;;;;;;;;;27.12;54.73;100370.62;5374368;32;34212;-70
2022/08/24 07:37:39;;;;;;;;;;;;;;;26.27;57.53;100377.91;5380542;32;35505;-76
2022/08/24 07:40:44;;;;;;;;;;;;;;;26.57;56.68;100379.25;5361925;32;44659;-71
2022/08/24 07:44:07;;;;;;;;;;;;;;;27.23;54.79;100372.13;5377422;32;34432;-75
2022/08/24 07:47:09;;;;;;;;;;;;;;;27.92;52.64;100380.72;5388146;32;35616;-70
2022/08/24 07:50:31;;;;;;;;;;;;;;;28.41;50.93;100380.59;5369849;32;34962;-73
2022/08/24 07:53:34;;;;;;;;;;;;;;;27.22;52.08;100387.50;5364090;32;34308;-73
2022/08/24 07:56:54;;;;;;;;;;;;;;;27.63;52.33;100376.69;5390791;32;37338;-70
2022/08/24 08:00:00;;;;;;;;;;;;;;;28.83;48.40;100385.59;5379401;32;36813;-84
2022/08/24 08:03:04;;;;;;;;;;;;;;;28.46;49.67;100389.00;5381858;32;35040;-68
2022/08/24 08:06:07;;;;;;;;;;;;;;;28.60;49.02;100391.81;5377942;32;35632;-77
2022/08/24 08:09:16;;;;;;;;;;;;;;;28.03;50.59;100392.00;5378442;32;44564;-74
2022/08/24 08:12:18;;;;;;;;;;;;;;;28.35;49.85;100395.66;5391059;32;35188;-69
2022/08/24 08:15:20;;;;;;;;;;;;;;;28.00;51.70;100392.34;5376848;32;35897;-73
2022/08/24 08:18:22;;;;;;;;;;;;;;;28.05;50.89;100392.66;5407454;32;34239;-71
2022/08/24 08:24:45;;;;;;;;;;;;;;;28.87;48.70;100386.94;5387595;32;44584;-72
2022/08/24 08:27:47;;;;;;;;;;;;;;;27.95;51.45;100386.63;5385285;32;34325;-71
2022/08/24 08:30:49;;;;;;;;;;;;;;;28.86;48.65;100394.22;5382398;32;35016;-67
2022/08/24 08:33:53;;;;;;;;;;;;;;;28.97;48.62;100387.56;5406226;32;34435;-76
2022/08/24 08:36:55;;;;;;;;;;;;;;;29.55;46.62;100391.53;5383613;32;35399;-75
2022/08/24 08:39:58;;;;;;;;;;;;;;;31.54;42.38;100378.66;5383500;32;34224;-73
2022/08/24 08:43:02;;;;;;;;;;;;;;;31.19;43.39;100388.56;5378241;32;35480;-69
2022/08/24 08:46:14;;;;;;;;;;;;;;;32.92;36.53;100387.03;5379560;32;35347;-72
2022/08/24 08:49:28;;;;;;;;;;;;;;;32.21;38.02;100390.03;5390047;32;45180;-73
2022/08/24 08:52:32;;;;;;;;;;;;;;;33.09;36.35;100385.56;5380116;32;32638;-73
2022/08/24 08:55:53;;;;;;;;;;;;;;;32.37;37.21;100389.72;5384903;32;34603;-66
2022/08/24 08:58:55;;;;;;;;;;;;;;;34.12;34.68;100383.28;5381407;32;34679;-68
2022/08/24 09:02:06;;;;;;;;;;;;;;;34.19;34.48;100384.09;5369977;32;35967;-75
2022/08/24 09:05:08;;;;;;;;;;;;;;;33.43;35.93;100379.16;5380724;32;34248;-76
2022/08/24 09:08:17;;;;;;;;;;;;;;;34.00;33.76;100390.44;5386790;32;44813;-72
2022/08/24 09:11:23;;;;;;;;;;;;;;;35.14;32.50;100382.44;5396935;32;34450;-76
2022/08/24 09:14:43;;;;;;;;;;;;;;;34.62;33.43;100394.47;5381658;32;34814;-84
2022/08/24 09:18:03;;;;;;;;;;;;;;;34.99;32.17;100380.03;5394364;32;44606;-72
2022/08/24 09:21:22;;;;;;;;;;;;;;;37.18;28.70;100377.72;5388797;32;34492;-69
2022/08/24 09:24:27;;;;;;;;;;;;;;;35.92;30.47;100378.47;5381688;32;35503;-69
2022/08/24 09:27:31;;;;;;;;;;;;;;;34.17;33.61;100376.13;5391274;32;35425;-70
2022/08/24 09:30:37;;;;;;;;;;;;;;;34.22;33.62;100378.22;5381934;32;34530;-76
2022/08/24 09:33:48;;;;;;;;;;;;;;;34.39;33.82;100373.97;5384001;32;45069;-74
2022/08/24 09:36:53;;;;;;;;;;;;;;;33.22;35.76;100377.44;5388584;32;34292;-77
2022/08/24 09:39:58;;;;;;;;;;;;;;;35.22;32.36;100362.19;5370729;32;35851;-77
2022/08/24 09:43:16;;;;;;;;;;;;;;;36.48;30.46;100361.84;5392470;32;34076;-72
2022/08/24 09:46:24;;;;;;;;;;;;;;;36.74;29.77;100359.81;5379513;32;43091;-73
2022/08/24 09:49:45;;;;;;;;;;;;;;;35.30;31.74;100361.12;5383862;32;35414;-67
2022/08/24 09:52:59;;;;;;;;;;;;;;;36.22;30.14;100359.41;5387574;32;45442;-67
2022/08/24 09:56:01;;;;;;;;;;;;;;;32.29;37.01;100357.22;5377189;32;34358;-74
2022/08/24 09:59:03;;;;;;;;;;;;;;;33.68;34.72;100352.09;5402709;32;34886;-84
2022/08/24 10:02:25;;;;;;;;;;;;;;;32.16;37.16;100349.84;5364822;32;34531;-86
2022/08/24 10:05:34;;;;;;;;;;;;;;;30.46;41.33;100359.75;5394337;32;35452;-70
2022/08/24 10:08:46;;;;;;;;;;;;;;;30.31;40.95;100362.50;5382132;32;34271;-72
2022/08/24 10:11:54;;;;;;;;;;;;;;;30.42;41.01;100366.59;5378666;32;35609;-90
2022/08/24 10:15:03;;;;;;;;;;;;;;;30.13;42.27;100372.87;5390471;32;34587;-73
2022/08/24 10:18:24;;;;;;;;;;;;;;;31.58;39.40;100351.12;5376330;32;34755;-74
2022/08/24 10:21:38;;;;;;;;;;;;;;;30.75;41.48;100361.59;5400804;32;37469;-70
2022/08/24 10:25:05;;;;;;;;;;;;;;;30.20;43.17;100366.50;5381880;32;44310;-67
2022/08/24 10:28:10;;;;;;;;;;;;;;;30.05;44.01;100362.94;5372871;32;36492;-70
2022/08/24 10:31:48;;;;;;;;;;;;;;;29.71;44.65;100370.78;5392413;32;44667;-70
2022/08/24 10:34:59;;;;;;;;;;;;;;;30.04;44.22;100363.97;5319728;32;34319;-75
2022/08/24 10:41:34;;;;;;;;;;;;;;;29.36;46.53;100370.38;5395931;32;34009;-73
2022/08/24 10:44:47;;;;;;;;;;;;;;;30.07;44.95;100369.00;5379354;32;37575;-73
2022/08/24 10:48:12;;;;;;;;;;;;;;;29.92;44.44;100370.88;5383674;32;35635;-73
2022/08/24 10:51:35;;;;;;;;;;;;;;;30.12;44.31;100368.47;5362272;32;45130;-68
2022/08/24 10:54:38;;;;;;;;;;;;;;;29.92;44.44;100376.28;5373857;32;35191;-69
2022/08/24 10:57:49;;;;;;;;;;;;;;;28.98;47.14;100366.75;5397023;32;36051;-68
2022/08/24 11:00:52;;;;;;;;;;;;;;;29.81;45.34;100365.91;5366924;32;34308;-67
2022/08/24 11:03:55;;;;;;;;;;;;;;;30.06;44.87;100377.31;5371786;32;34463;-67
2022/08/24 11:07:06;;;;;;;;;;;;;;;31.05;42.26;100361.50;5384774;32;34140;-67
2022/08/24 11:10:09;;;;;;;;;;;;;;;30.73;43.01;100364.50;5375944;32;34198;-64
2022/08/24 11:13:16;;;;;;;;;;;;;;;31.19;41.69;100358.72;5390056;32;44333;-67
2022/08/24 11:16:32;;;;;;;;;;;;;;;30.42;43.60;100366.59;5379240;32;34432;-66
2022/08/24 11:19:34;;;;;;;;;;;;;;;31.07;42.04;100360.25;5394424;32;35461;-67
2022/08/24 11:22:39;;;;;;;;;;;;;;;30.40;43.71;100372.22;5379906;32;35125;-68
2022/08/24 11:25:54;;;;;;;;;;;;;;;29.00;48.06;100375.56;5378625;32;44529;-69
2022/08/24 11:29:02;;;;;;;;;;;;;;;29.20;47.86;100381.34;5394007;32;35966;-64
2022/08/24 11:32:04;;;;;;;;;;;;;;;28.72;49.08;100384.12;5378778;32;35404;-67
2022/08/24 11:35:35;;;;;;;;;;;;;;;28.06;50.88;100394.34;5394071;32;35292;-66
2022/08/24 11:38:37;;;;;;;;;;;;;;;28.23;50.60;100386.22;5371406;32;34400;-74
2022/08/24 11:41:48;;;;;;;;;;;;;;;28.69;50.33;100386.37;5383664;32;46533;-73
2022/08/24 11:44:50;;;;;;;;;;;;;;;28.13;52.75;100399.91;5395147;32;35380;-78
2022/08/24 11:48:07;;;;;;;;;;;;;;;28.40;52.49;100401.34;5376463;32;34689;-71
2022/08/24 11:51:22;;;;;;;;;;;;;;;28.07;54.53;100403.28;5383930;32;44370;-67
2022/08/24 11:54:36;;;;;;;;;;;;;;;27.33;58.83;100397.13;5378908;32;34352;-71
2022/08/24 11:58:01;;;;;;;;;;;;;;;27.21;59.56;100414.62;5376922;32;44628;-74
2022/08/24 12:01:16;;;;;;;;;;;;;;;28.07;57.23;100401.44;5379378;32;34367;-75
2022/08/24 12:04:36;;;;;;;;;;;;;;;29.65;51.23;100399.44;5374145;32;44628;-74
2022/08/24 12:07:38;;;;;;;;;;;;;;;30.25;49.14;100398.47;5385369;32;35900;-73
2022/08/24 12:10:43;;;;;;;;;;;;;;;32.10;45.16;100390.59;5387474;32;46766;-69
2022/08/24 12:13:51;;;;;;;;;;;;;;;31.65;45.48;100393.59;5382874;32;35342;-72
2022/08/24 12:17:01;;;;;;;;;;;;;;;30.59;48.04;100394.31;5386420;32;34501;-70
2022/08/24 12:20:15;;;;;;;;;;;;;;;29.19;51.97;100401.31;5373035;32;34619;-72
2022/08/24 12:23:41;;;;;;;;;;;;;;;28.01;55.59;100404.81;5391885;32;34882;-80
2022/08/24 12:26:45;;;;;;;;;;;;;;;27.52;58.60;100404.88;5382226;32;44679;-67
2022/08/24 12:29:47;;;;;;;;;;;;;;;27.69;58.64;100415.69;5373796;32;35489;-73
2022/08/24 12:32:52;;;;;;;;;;;;;;;27.02;61.25;100412.22;5396267;32;35421;-71
2022/08/24 12:35:55;;;;;;;;;;;;;;;27.87;57.95;100410.94;5368748;32;34443;-68
2022/08/24 12:39:04;;;;;;;;;;;;;;;26.82;61.81;100414.38;5389976;32;35689;-70
2022/08/24 12:42:07;;;;;;;;;;;;;;;27.47;59.41;100407.22;5382108;32;34256;-71
2022/08/24 12:45:10;;;;;;;;;;;;;;;27.08;59.80;100408.88;5370798;32;34292;-74
2022/08/24 12:48:12;;;;;;;;;;;;;;;26.87;61.00;100409.34;5389606;32;44511;-70
2022/08/24 12:51:21;;;;;;;;;;;;;;;26.28;63.59;100403.84;5380097;32;34256;-79
2022/08/24 12:54:28;;;;;;;;;;;;;;;26.42;62.15;100405.12;5388505;32;34228;-76
2022/08/24 12:57:43;;;;;;;;;;;;;;;26.73;60.68;100400.88;5366442;32;33818;-71
2022/08/24 13:00:56;;;;;;;;;;;;;;;26.74;61.33;100399.00;5369659;32;35354;-73
2022/08/24 13:04:03;;;;;;;;;;;;;;;27.18;59.20;100398.81;5383125;32;34187;-68
2022/08/24 13:07:31;;;;;;;;;;;;;;;27.30;57.62;100394.72;5378854;32;34379;-70
2022/08/24 13:10:36;;;;;;;;;;;;;;;27.34;57.79;100388.00;5387216;32;34322;-66
2022/08/24 13:13:54;;;;;;;;;;;;;;;26.95;58.89;100388.59;5376888;32;34148;-74
2022/08/24 13:16:56;;;;;;;;;;;;;;;26.71;60.24;100385.84;5377649;32;36666;-71
2022/08/24 13:20:16;;;;;;;;;;;;;;;26.41;65.53;100396.19;5396338;32;34834;-73
2022/08/24 13:23:20;;;;;;;;;;;;;;;26.28;64.48;100394.94;5382794;32;46627;-73
2022/08/24 13:26:23;;;;;;;;;;;;;;;27.27;59.77;100387.84;5390050;32;35195;-68
2022/08/24 13:29:26;;;;;;;;;;;;;;;27.18;61.28;100393.41;5371633;32;35196;-74
2022/08/24 13:32:30;;;;;;;;;;;;;;;26.83;61.32;100398.00;5390247;32;34442;-78
2022/08/24 13:35:34;;;;;;;;;;;;;;;27.18;60.34;100396.94;5391122;32;34367;-78
2022/08/24 13:38:36;;;;;;;;;;;;;;;26.99;59.61;100395.38;5373843;32;34800;-84
2022/08/24 13:41:48;;;;;;;;;;;;;;;26.91;60.76;100405.28;5402541;32;44891;-73
2022/08/24 13:44:56;;;;;;;;;;;;;;;27.56;58.19;100405.38;5380512;32;35522;-77
2022/08/24 13:48:02;;;;;;;;;;;;;;;27.31;58.41;100401.84;5393925;32;34491;-69
2022/08/24 13:51:20;;;;;;;;;;;;;;;27.76;56.03;100403.22;5374224;32;34248;-80
2022/08/24 13:54:22;;;;;;;;;;;;;;;27.30;57.33;100407.38;5378337;32;34293;-71
2022/08/24 13:57:26;;;;;;;;;;;;;;;27.41;57.11;100409.75;5390770;32;34244;-69
2022/08/24 14:00:32;;;;;;;;;;;;;;;27.41;56.22;100410.59;5368518;32;35713;-72
2022/08/24 14:03:48;;;;;;;;;;;;;;;27.06;56.91;100409.06;5380678;32;34490;-70
2022/08/24 14:07:02;;;;;;;;;;;;;;;27.43;56.70;100403.16;5377191;32;37542;-68
2022/08/24 14:10:22;;;;;;;;;;;;;;;28.65;52.08;100393.13;5379558;32;34971;-70
2022/08/24 14:13:39;;;;;;;;;;;;;;;28.09;54.06;100403.16;5392180;32;35046;-73
2022/08/24 14:20:39;;;;;;;;;;;;;;;27.97;53.76;100400.81;5383263;32;35281;-67
2022/08/24 14:23:48;;;;;;;;;;;;;;;27.68;54.82;100392.38;5392887;32;44542;-75
2022/08/24 14:26:59;;;;;;;;;;;;;;;27.94;53.84;100398.44;5380557;32;37397;-75
2022/08/24 14:30:24;;;;;;;;;;;;;;;27.28;56.30;100396.78;5394945;32;34406;-69
2022/08/24 14:33:29;;;;;;;;;;;;;;;27.79;55.66;100392.06;5370685;32;36345;-69
2022/08/24 14:36:42;;;;;;;;;;;;;;;28.55;53.03;100396.91;5374511;32;34302;-68
2022/08/24 14:39:47;;;;;;;;;;;;;;;27.69;55.45;100403.03;5386103;32;44844;-70
2022/08/24 14:42:56;;;;;;;;;;;;;;;27.51;56.10;100405.06;5366102;32;34970;-75
2022/08/24 14:46:16;;;;;;;;;;;;;;;27.67;55.15;100409.59;5385346;32;34750;-75
2022/08/24 14:49:30;;;;;;;;;;;;;;;27.83;54.48;100397.97;5367256;32;44605;-69
2022/08/24 14:52:35;;;;;;;;;;;;;;;27.11;57.22;100401.28;5362368;32;34316;-75
2022/08/24 14:55:37;;;;;;;;;;;;;;;27.38;57.22;100399.31;5388790;32;34554;-74
2022/08/24 14:58:58;;;;;;;;;;;;;;;27.83;55.67;100388.00;5367155;32;34603;-69
2022/08/24 15:02:12;;;;;;;;;;;;;;;28.27;53.52;100387.53;5357212;32;35044;-73
2022/08/24 15:05:20;;;;;;;;;;;;;;;27.59;55.73;100391.53;5375757;32;44955;-69
2022/08/24 15:08:27;;;;;;;;;;;;;;;27.25;56.13;100389.03;5375579;32;34600;-74
2022/08/24 15:11:30;;;;;;;;;;;;;;;27.16;55.91;100395.41;5397062;32;34303;-68
2022/08/24 15:14:51;;;;;;;;;;;;;;;27.60;54.93;100395.09;5373765;32;34915;-69
2022/08/24 15:18:03;;;;;;;;;;;;;;;27.40;55.52;100403.53;5393372;32;34368;-75
2022/08/24 15:21:15;;;;;;;;;;;;;;;27.73;54.75;100400.84;5365974;32;34747;-69
2022/08/24 15:24:36;;;;;;;;;;;;;;;27.86;54.18;100403.84;5370907;32;34568;-73
2022/08/24 15:27:55;;;;;;;;;;;;;;;27.34;55.12;100409.59;5394402;32;34554;-69
2022/08/24 15:31:00;;;;;;;;;;;;;;;26.44;57.98;100414.72;5373925;32;35545;-70
2022/08/24 15:34:02;;;;;;;;;;;;;;;26.27;58.91;100421.00;5385211;32;34939;-70
2022/08/24 15:37:05;;;;;;;;;;;;;;;26.52;58.49;100416.59;5381093;32;35300;-69
2022/08/24 15:40:21;;;;;;;;;;;;;;;26.32;58.24;100413.28;5377737;32;34777;-69
2022/08/24 15:43:23;;;;;;;;;;;;;;;26.34;58.21;100416.69;5381246;32;34869;-75
2022/08/24 15:46:26;;;;;;;;;;;;;;;26.69;56.86;100404.03;5365642;32;34837;-68
2022/08/24 15:49:57;;;;;;;;;;;;;;;26.65;56.92;100400.81;5380969;32;35257;-67
2022/08/24 15:53:00;;;;;;;;;;;;;;;26.79;56.81;100410.13;5363928;32;34947;-75
2022/08/24 15:56:20;;;;;;;;;;;;;;;26.96;56.95;100411.88;5372469;32;35213;-68
2022/08/24 15:59:25;;;;;;;;;;;;;;;27.52;55.35;100404.88;5386415;32;34405;-75
2022/08/24 16:02:29;;;;;;;;;;;;;;;27.13;56.86;100401.16;5343148;32;34874;-69
2022/08/24 16:05:31;;;;;;;;;;;;;;;26.90;58.25;100403.59;5388225;32;34199;-75
2022/08/24 16:08:37;;;;;;;;;;;;;;;27.05;57.86;100402.00;5368228;32;34637;-72